Time;durP1;ratioP1;P1;durP2;ratioP2;P2;SDS_P1;SDS_P2;PMS_P1;PMS_P2;Temp;Humidity;BMP_temperature;BMP_pressure;BME280_temperature;BME280_humidity;BME280_pressure;Samples;Min_cycle;Max_cycle;Signal;HPM_P1;HPM_P2
2020/12/26 00:01:18;;;;;;;5.28;0.82;;;5.00;99.90;;;;;;5109986;28;20399;-50
2020/12/26 00:03:46;;;;;;;7.28;0.98;;;5.00;99.90;;;;;;5111942;28;20079;-46
2020/12/26 00:06:19;;;;;;;7.03;1.13;;;5.00;99.90;;;;;;5103637;28;20051;-53
2020/12/26 00:08:45;;;;;;;7.88;1.38;;;4.90;99.90;;;;;;5102606;28;20042;-49
2020/12/26 00:11:15;;;;;;;4.43;0.70;;;4.90;99.90;;;;;;5099080;28;20024;-50
2020/12/26 00:13:42;;;;;;;7.18;0.80;;;4.90;99.90;;;;;;5109941;28;20031;-49
2020/12/26 00:16:09;;;;;;;10.20;1.60;;;4.90;99.90;;;;;;5103792;28;20122;-47
2020/12/26 00:18:36;;;;;;;2.60;0.63;;;4.90;99.90;;;;;;5104759;28;20052;-48
2020/12/26 00:21:09;;;;;;;9.98;1.48;;;4.90;99.90;;;;;;5109140;28;20062;-53
2020/12/26 00:23:35;;;;;;;11.63;1.80;;;4.90;99.90;;;;;;5106280;27;20392;-49
2020/12/26 00:26:00;;;;;;;8.15;1.23;;;4.90;99.90;;;;;;5107044;28;20039;-49
2020/12/26 00:28:26;;;;;;;6.90;1.20;;;4.90;99.90;;;;;;5112151;28;20037;-50
2020/12/26 00:30:52;;;;;;;4.93;1.15;;;4.90;99.90;;;;;;5111233;28;20047;-47
2020/12/26 00:33:17;;;;;;;7.63;1.27;;;4.90;99.90;;;;;;5111765;28;20023;-45
2020/12/26 00:35:43;;;;;;;6.13;1.35;;;4.90;99.90;;;;;;5111357;28;20054;-48
2020/12/26 00:38:08;;;;;;;16.05;1.75;;;4.90;99.90;;;;;;5112449;28;20126;-47
2020/12/26 00:40:34;;;;;;;5.47;1.15;;;4.90;99.90;;;;;;5111478;28;20020;-50
2020/12/26 00:43:00;;;;;;;9.15;1.30;;;4.90;99.90;;;;;;5112144;28;20031;-51
2020/12/26 00:45:25;;;;;;;10.27;1.73;;;4.90;99.90;;;;;;5112189;28;20115;-50
2020/12/26 00:47:51;;;;;;;8.77;2.95;;;4.90;99.90;;;;;;5113048;28;20032;-53
2020/12/26 00:50:16;;;;;;;5.93;1.00;;;4.90;99.90;;;;;;5109527;28;20038;-50
2020/12/26 00:52:42;;;;;;;5.75;1.40;;;4.90;99.90;;;;;;5111385;28;20491;-49
2020/12/26 00:55:07;;;;;;;3.40;1.35;;;4.80;99.90;;;;;;5109858;28;20476;-46
2020/12/26 00:57:33;;;;;;;11.02;1.70;;;4.90;99.90;;;;;;5112154;28;20046;-49
2020/12/26 00:59:59;;;;;;;16.45;1.85;;;4.80;99.90;;;;;;5111377;28;20028;-49
2020/12/26 01:02:25;;;;;;;9.13;1.88;;;4.80;99.90;;;;;;5112798;28;20092;-53
2020/12/26 01:04:50;;;;;;;11.48;1.83;;;4.80;99.90;;;;;;5109217;28;20044;-51
2020/12/26 01:07:16;;;;;;;9.30;2.47;;;4.80;99.90;;;;;;5110074;28;20020;-51
2020/12/26 01:09:42;;;;;;;5.40;1.10;;;4.80;99.90;;;;;;5111800;28;20055;-52
2020/12/26 01:12:07;;;;;;;6.97;1.58;;;4.80;99.90;;;;;;5110351;28;20046;-45
2020/12/26 01:14:33;;;;;;;8.82;1.70;;;4.80;99.90;;;;;;5110739;28;20519;-50
2020/12/26 01:16:59;;;;;;;8.98;1.55;;;4.70;99.90;;;;;;5108781;28;20112;-50
2020/12/26 01:19:27;;;;;;;5.85;1.20;;;4.70;99.90;;;;;;5110342;28;20072;-51
2020/12/26 01:21:53;;;;;;;11.30;1.50;;;4.70;99.90;;;;;;5104891;28;20027;-49
2020/12/26 01:24:19;;;;;;;8.75;1.25;;;4.70;99.90;;;;;;5111081;28;20035;-52
2020/12/26 01:26:47;;;;;;;12.50;2.95;;;4.70;99.90;;;;;;5109472;28;20031;-52
2020/12/26 01:29:13;;;;;;;8.65;1.38;;;4.80;99.90;;;;;;5111835;28;20376;-47
2020/12/26 01:31:39;;;;;;;7.28;1.42;;;4.80;99.90;;;;;;5112056;28;20103;-47
2020/12/26 01:34:05;;;;;;;4.32;1.13;;;4.80;99.90;;;;;;5109776;28;20042;-49
2020/12/26 01:36:30;;;;;;;7.65;1.35;;;4.80;99.90;;;;;;5108195;27;20027;-51
2020/12/26 01:38:56;;;;;;;13.07;1.40;;;4.70;99.90;;;;;;5103317;28;21819;-50
2020/12/26 01:41:22;;;;;;;6.07;0.90;;;4.70;99.90;;;;;;5099814;28;20035;-47
2020/12/26 01:43:55;;;;;;;5.70;1.30;;;4.70;99.90;;;;;;5104096;28;20472;-51
2020/12/26 01:46:25;;;;;;;7.60;1.40;;;4.70;99.90;;;;;;5095948;28;20484;-49
2020/12/26 01:48:50;;;;;;;9.13;2.83;;;4.70;99.90;;;;;;5101470;28;20090;-44
2020/12/26 01:51:16;;;;;;;7.88;1.33;;;4.70;99.90;;;;;;5107397;28;20115;-47
2020/12/26 01:53:42;;;;;;;6.15;1.55;;;4.80;99.90;;;;;;5108368;28;20035;-48
2020/12/26 01:56:08;;;;;;;15.82;1.60;;;4.70;99.90;;;;;;5097111;28;20032;-51
2020/12/26 01:58:35;;;;;;;7.18;1.30;;;4.80;99.90;;;;;;5105289;28;20035;-48
2020/12/26 02:01:01;;;;;;;8.45;1.33;;;4.80;99.90;;;;;;5106768;28;20019;-51
2020/12/26 02:03:26;;;;;;;7.28;1.30;;;4.80;99.90;;;;;;5108368;28;20547;-47
2020/12/26 02:05:54;;;;;;;11.43;1.33;;;4.80;99.90;;;;;;5104733;28;20031;-48
2020/12/26 02:08:20;;;;;;;5.22;1.23;;;4.80;99.90;;;;;;5105200;28;20485;-50
2020/12/26 02:10:45;;;;;;;4.80;0.77;;;4.90;99.90;;;;;;5105296;28;20049;-55
2020/12/26 02:13:11;;;;;;;4.13;1.10;;;4.90;99.90;;;;;;5106911;28;20078;-52
2020/12/26 02:15:37;;;;;;;6.45;1.23;;;5.00;99.90;;;;;;5107435;28;20426;-50
2020/12/26 02:18:02;;;;;;;7.78;1.30;;;4.90;99.90;;;;;;5099212;28;20031;-49
2020/12/26 02:20:28;;;;;;;7.43;1.42;;;4.90;99.90;;;;;;5099490;28;20504;-50
2020/12/26 02:22:54;;;;;;;10.23;1.50;;;4.90;99.90;;;;;;5107186;28;20394;-47
2020/12/26 02:25:19;;;;;;;9.20;1.27;;;4.90;99.90;;;;;;5097392;28;20043;-50
2020/12/26 02:27:45;;;;;;;9.05;1.38;;;4.90;99.90;;;;;;5109742;28;20898;-46
2020/12/26 02:30:10;;;;;;;7.45;1.55;;;5.00;99.90;;;;;;5111434;27;20499;-52
2020/12/26 02:32:36;;;;;;;14.75;1.70;;;5.00;99.90;;;;;;5096737;28;20040;-46
2020/12/26 02:35:03;;;;;;;9.80;1.50;;;5.00;99.90;;;;;;5108269;28;20034;-45
2020/12/26 02:37:28;;;;;;;10.70;1.58;;;5.00;99.90;;;;;;5110751;28;20040;-54
2020/12/26 02:39:54;;;;;;;7.90;2.17;;;5.00;99.90;;;;;;5098735;28;20028;-47
2020/12/26 02:42:19;;;;;;;10.43;1.35;;;5.00;99.90;;;;;;5101137;28;20228;-48
2020/12/26 02:44:45;;;;;;;9.52;1.33;;;5.00;99.90;;;;;;5111532;28;20039;-50
2020/12/26 02:47:10;;;;;;;7.60;1.15;;;5.00;99.90;;;;;;5102719;28;20024;-48
2020/12/26 02:49:36;;;;;;;6.55;1.20;;;4.90;99.90;;;;;;5107552;28;20029;-47
2020/12/26 02:52:02;;;;;;;7.18;1.20;;;5.00;99.90;;;;;;5099604;28;20105;-43
2020/12/26 02:54:27;;;;;;;9.57;1.42;;;5.00;99.90;;;;;;5115673;27;20032;-52
2020/12/26 02:56:53;;;;;;;3.45;1.05;;;4.90;99.90;;;;;;5102372;28;20044;-52
2020/12/26 02:59:18;;;;;;;9.75;1.75;;;4.90;99.90;;;;;;5106728;28;20528;-53
2020/12/26 03:01:44;;;;;;;4.07;1.10;;;4.80;99.90;;;;;;5103544;28;20504;-46
2020/12/26 03:04:09;;;;;;;10.23;1.60;;;4.80;99.90;;;;;;5095501;28;20052;-47
2020/12/26 03:06:35;;;;;;;9.23;1.30;;;4.80;99.90;;;;;;5107718;28;20106;-50
2020/12/26 03:09:00;;;;;;;5.43;1.23;;;4.90;99.90;;;;;;5105166;28;20055;-49
2020/12/26 03:11:26;;;;;;;6.70;1.25;;;4.80;99.90;;;;;;5099663;28;20032;-53
2020/12/26 03:13:52;;;;;;;6.20;1.02;;;4.70;99.90;;;;;;5113551;28;20028;-46
2020/12/26 03:16:18;;;;;;;6.47;1.40;;;4.70;99.90;;;;;;5105183;28;20487;-49
2020/12/26 03:18:44;;;;;;;5.38;1.13;;;4.70;99.90;;;;;;5106088;28;20415;-50
2020/12/26 03:21:10;;;;;;;11.63;1.33;;;4.70;99.90;;;;;;5103982;28;20059;-50
2020/12/26 03:23:36;;;;;;;8.30;1.40;;;4.70;99.90;;;;;;5102323;28;20541;-45
2020/12/26 03:26:02;;;;;;;6.63;1.17;;;4.60;99.90;;;;;;5097261;28;20088;-49
2020/12/26 03:28:27;;;;;;;5.97;1.25;;;4.70;99.90;;;;;;5093107;28;20541;-49
2020/12/26 03:30:53;;;;;;;6.13;1.48;;;4.70;99.90;;;;;;5090791;27;20062;-35
2020/12/26 03:33:18;;;;;;;10.43;1.52;;;4.70;99.90;;;;;;5086482;28;20951;-43
2020/12/26 03:35:44;;;;;;;9.60;1.95;;;4.80;99.90;;;;;;5099073;27;20024;-47
2020/12/26 03:38:09;;;;;;;12.80;1.77;;;4.70;99.90;;;;;;5108686;28;20127;-54
2020/12/26 03:40:35;;;;;;;7.65;2.40;;;4.80;99.90;;;;;;5108786;27;20031;-52
2020/12/26 03:43:00;;;;;;;6.13;1.55;;;4.80;99.90;;;;;;5106975;28;20032;-48
2020/12/26 03:45:26;;;;;;;9.23;2.53;;;4.80;99.90;;;;;;5108357;28;20465;-50
2020/12/26 03:47:52;;;;;;;7.65;1.55;;;4.90;99.90;;;;;;5104542;28;20055;-47
2020/12/26 03:50:17;;;;;;;7.78;1.30;;;4.90;99.90;;;;;;5101910;28;20097;-48
2020/12/26 03:52:43;;;;;;;13.73;4.07;;;4.90;99.90;;;;;;5099975;27;20043;-43
2020/12/26 03:55:08;;;;;;;7.85;2.00;;;5.00;99.90;;;;;;5111111;28;20053;-51
2020/12/26 03:57:34;;;;;;;4.03;1.20;;;5.00;99.90;;;;;;5107759;28;20480;-51
2020/12/26 03:59:59;;;;;;;9.60;1.83;;;5.00;99.90;;;;;;5105072;28;20393;-48
2020/12/26 04:02:25;;;;;;;6.63;1.63;;;5.00;99.90;;;;;;5110048;28;20115;-43
2020/12/26 04:04:50;;;;;;;5.68;1.30;;;5.00;99.90;;;;;;5111224;27;20043;-49
2020/12/26 04:07:16;;;;;;;9.30;2.88;;;5.00;99.90;;;;;;5112688;28;20027;-45
2020/12/26 04:09:41;;;;;;;7.93;1.40;;;5.00;99.90;;;;;;5108425;28;20142;-50
2020/12/26 04:12:07;;;;;;;5.60;1.25;;;5.00;99.90;;;;;;5097199;28;20385;-51
2020/12/26 04:14:33;;;;;;;10.98;1.63;;;5.00;99.90;;;;;;5107761;28;20181;-50
2020/12/26 04:16:59;;;;;;;14.40;1.58;;;5.00;99.90;;;;;;5113120;28;20039;-50
2020/12/26 04:19:28;;;;;;;3.33;1.27;;;5.00;99.90;;;;;;5095256;28;20036;-49
2020/12/26 04:21:54;;;;;;;9.07;1.40;;;5.00;99.90;;;;;;5109040;28;20046;-46
2020/12/26 04:24:20;;;;;;;6.63;1.38;;;5.00;99.90;;;;;;5106925;27;20036;-46
2020/12/26 04:26:46;;;;;;;7.15;1.58;;;5.10;99.90;;;;;;5113017;28;20530;-46
2020/12/26 04:29:11;;;;;;;8.07;1.63;;;5.00;99.90;;;;;;5113155;28;20460;-50
2020/12/26 04:31:37;;;;;;;10.38;1.63;;;5.00;99.90;;;;;;5112926;28;20503;-51
2020/12/26 04:34:03;;;;;;;8.05;1.10;;;5.00;99.90;;;;;;5108674;28;20062;-50
2020/12/26 04:36:28;;;;;;;7.00;1.55;;;5.00;99.90;;;;;;5111557;28;20062;-49
2020/12/26 04:38:54;;;;;;;9.73;1.48;;;5.10;99.90;;;;;;5105980;28;20031;-47
2020/12/26 04:41:20;;;;;;;7.82;1.08;;;5.10;99.90;;;;;;5101734;28;20040;-49
2020/12/26 04:43:46;;;;;;;8.13;1.30;;;5.00;99.90;;;;;;5099235;28;20042;-47
2020/12/26 04:46:19;;;;;;;4.97;1.40;;;5.00;99.90;;;;;;5100389;28;20426;-50
2020/12/26 04:49:01;;;;;;;5.63;2.05;;;5.10;99.90;;;;;;5108009;28;20380;-49
2020/12/26 04:51:27;;;;;;;;;;;5.20;99.90;;;;;;5096971;28;20040;-41
2020/12/26 04:53:57;;;;;;;7.05;1.15;;;5.20;99.90;;;;;;5110015;28;20323;-53
2020/12/26 04:56:32;;;;;;;8.68;1.33;;;5.30;99.90;;;;;;5110428;28;20040;-52
2020/12/26 04:59:00;;;;;;;12.57;1.40;;;5.30;99.90;;;;;;5107405;28;20175;-52
2020/12/26 05:01:28;;;;;;;12.35;1.50;;;5.30;99.90;;;;;;5110220;28;20032;-45
2020/12/26 05:03:58;;;;;;;7.53;1.25;;;5.20;99.90;;;;;;5105025;28;20032;-47
2020/12/26 05:06:29;;;;;;;6.53;1.23;;;5.20;99.90;;;;;;5102768;28;20020;-48
2020/12/26 05:08:55;;;;;;;9.55;1.42;;;5.30;99.90;;;;;;5106597;28;20027;-47
2020/12/26 05:11:20;;;;;;;10.02;1.02;;;5.40;99.90;;;;;;5108734;28;20028;-48
2020/12/26 05:13:46;;;;;;;4.18;0.82;;;5.30;99.90;;;;;;5100972;28;20107;-48
2020/12/26 05:16:12;;;;;;;13.15;1.95;;;5.40;99.90;;;;;;5102198;28;20031;-54
2020/12/26 05:18:38;;;;;;;8.52;1.20;;;5.40;99.90;;;;;;5110288;28;20035;-48
2020/12/26 05:21:04;;;;;;;7.45;1.13;;;5.40;99.90;;;;;;5109622;28;20495;-50
2020/12/26 05:23:30;;;;;;;7.97;1.67;;;5.40;99.90;;;;;;5105896;28;20028;-49
2020/12/26 05:25:55;;;;;;;12.25;2.30;;;5.40;99.90;;;;;;5098463;28;20032;-48
2020/12/26 05:28:27;;;;;;;3.72;0.80;;;5.40;99.90;;;;;;5096203;28;20469;-51
2020/12/26 05:30:53;;;;;;;;;;;5.50;99.90;;;;;;5109145;28;20104;-49
2020/12/26 05:33:19;;;;;;;5.32;0.95;;;5.50;99.90;;;;;;5103147;28;20423;-47
2020/12/26 05:35:46;;;;;;;8.80;1.27;;;5.60;99.90;;;;;;5105371;28;20396;-54
2020/12/26 05:38:15;;;;;;;10.05;1.20;;;5.50;99.90;;;;;;5099098;28;20357;-50
2020/12/26 05:40:45;;;;;;;11.25;1.50;;;5.50;99.90;;;;;;5106735;28;20499;-52
2020/12/26 05:43:14;;;;;;;5.27;0.80;;;5.60;99.90;;;;;;5106282;28;20106;-51
2020/12/26 05:45:41;;;;;;;7.82;1.00;;;5.60;99.90;;;;;;5094654;28;20693;-50
2020/12/26 05:48:11;;;;;;;12.75;1.30;;;5.60;99.90;;;;;;5099657;28;20084;-50
2020/12/26 05:50:37;;;;;;;18.27;2.15;;;5.60;99.90;;;;;;5107647;28;20084;-48
2020/12/26 05:53:05;;;;;;;6.75;0.93;;;5.60;99.90;;;;;;5106319;28;20413;-48
2020/12/26 05:55:42;;;;;;;11.93;1.70;;;5.60;99.90;;;;;;5109112;28;20055;-34
2020/12/26 05:58:09;;;;;;;5.00;1.52;;;5.60;99.90;;;;;;5105321;28;20048;-49
2020/12/26 06:00:36;;;;;;;12.30;1.83;;;5.40;99.90;;;;;;5097869;28;20039;-52
2020/12/26 06:03:28;;;;;;;14.02;2.50;;;5.30;99.90;;;;;;5115296;28;20081;-48
2020/12/26 06:05:55;;;;;;;9.50;2.35;;;5.30;99.90;;;;;;5113889;28;20027;-50
2020/12/26 06:08:22;;;;;;;10.98;2.92;;;5.20;99.90;;;;;;5108660;28;20028;-49
2020/12/26 06:10:51;;;;;;;10.70;3.20;;;5.10;99.90;;;;;;5114894;28;20084;-49
2020/12/26 06:13:20;;;;;;;12.13;3.40;;;5.10;99.90;;;;;;5111751;28;20031;-43
2020/12/26 06:16:08;;;;;;;9.00;3.40;;;5.00;99.90;;;;;;5104699;28;20035;-45
2020/12/26 06:18:47;;;;;;;17.77;4.95;;;5.00;99.90;;;;;;5112196;28;20166;-49
2020/12/26 06:21:14;;;;;;;16.30;3.75;;;5.00;99.90;;;;;;5113904;28;20042;-51
2020/12/26 06:23:41;;;;;;;13.98;4.10;;;5.00;99.90;;;;;;5104732;28;20086;-51
2020/12/26 06:26:07;;;;;;;16.85;3.88;;;5.00;99.90;;;;;;5105869;28;20494;-44
2020/12/26 06:28:36;;;;;;;14.27;3.97;;;5.00;99.90;;;;;;5113676;28;20047;-51
2020/12/26 06:31:05;;;;;;;13.93;3.63;;;4.90;99.90;;;;;;5111938;28;20088;-48
2020/12/26 06:33:38;;;;;;;13.00;3.13;;;4.90;99.90;;;;;;5108545;28;20024;-50
2020/12/26 06:36:05;;;;;;;7.57;2.72;;;5.00;99.90;;;;;;5112969;28;20052;-50
2020/12/26 06:38:31;;;;;;;15.57;3.60;;;4.90;99.90;;;;;;5107541;28;20038;-49
2020/12/26 06:41:02;;;;;;;9.82;3.40;;;4.90;99.90;;;;;;5117949;27;20456;-49
2020/12/26 06:43:47;;;;;;;11.60;3.25;;;4.90;99.90;;;;;;5111770;28;20112;-47
2020/12/26 06:46:22;;;;;;;9.52;1.63;;;5.00;99.90;;;;;;5109103;28;20042;-49
2020/12/26 06:48:55;;;;;;;7.95;2.72;;;5.00;99.90;;;;;;5104627;28;20055;-49
2020/12/26 06:51:21;;;;;;;16.63;2.90;;;5.10;99.90;;;;;;5112310;28;20038;-46
2020/12/26 06:53:47;;;;;;;11.70;2.97;;;5.10;99.90;;;;;;5111086;28;20399;-49
2020/12/26 06:56:35;;;;;;;15.40;2.55;;;5.10;99.90;;;;;;5114045;28;20513;-52
2020/12/26 06:59:05;;;;;;;15.35;2.78;;;5.10;99.90;;;;;;5112947;28;20533;-51
2020/12/26 07:01:32;;;;;;;14.27;2.63;;;5.10;99.90;;;;;;5111074;28;20027;-49
2020/12/26 07:04:07;;;;;;;14.90;2.58;;;5.10;99.90;;;;;;5110183;28;20567;-47
2020/12/26 07:06:52;;;;;;;11.30;1.55;;;5.10;99.90;;;;;;5112614;28;20723;-46
2020/12/26 07:09:19;;;;;;;11.30;2.78;;;5.10;99.90;;;;;;5112654;28;20051;-54
2020/12/26 07:11:52;;;;;;;7.57;2.10;;;5.10;99.90;;;;;;5108848;28;20035;-54
2020/12/26 07:14:44;;;;;;;12.40;2.60;;;5.20;99.90;;;;;;5100980;28;20047;-48
2020/12/26 07:17:13;;;;;;;8.75;2.15;;;5.10;99.90;;;;;;5113395;28;20024;-48
2020/12/26 07:19:43;;;;;;;12.20;2.20;;;5.10;99.90;;;;;;5106709;28;20035;-50
2020/12/26 07:22:16;;;;;;;7.20;2.33;;;5.10;99.90;;;;;;5109928;28;20046;-53
2020/12/26 07:24:47;;;;;;;10.40;2.13;;;5.10;99.90;;;;;;5107453;28;20034;-51
2020/12/26 07:27:32;;;;;;;12.35;2.95;;;5.00;99.90;;;;;;5094433;28;20365;-47
2020/12/26 07:30:19;;;;;;;12.40;2.70;;;5.00;99.90;;;;;;5108641;28;21530;-53
2020/12/26 07:32:51;;;;;;;7.22;1.95;;;5.00;99.90;;;;;;5113676;28;20426;-55
2020/12/26 07:35:19;;;;;;;10.38;2.30;;;5.00;99.90;;;;;;5105155;28;20108;-49
2020/12/26 07:37:51;;;;;;;12.88;2.33;;;4.90;99.90;;;;;;5111228;28;20407;-42
2020/12/26 07:40:22;;;;;;;14.13;2.95;;;5.00;99.90;;;;;;5104204;28;20043;-54
2020/12/26 07:42:48;;;;;;;10.57;2.67;;;5.00;99.90;;;;;;5113459;27;20027;-53
2020/12/26 07:45:16;;;;;;;3.50;1.90;;;5.00;99.90;;;;;;5094364;28;20606;-54
2020/12/26 07:47:46;;;;;;;11.02;2.50;;;5.00;99.90;;;;;;5103285;28;20039;-51
2020/12/26 07:50:14;;;;;;;13.88;3.03;;;5.00;99.90;;;;;;5108621;28;20031;-51
2020/12/26 07:52:51;;;;;;;9.52;2.00;;;5.00;99.90;;;;;;5110255;28;20062;-48
2020/12/26 07:55:17;;;;;;;13.30;2.95;;;4.90;99.90;;;;;;5108854;27;20027;-47
2020/12/26 07:57:44;;;;;;;15.52;3.53;;;4.90;99.90;;;;;;5113009;28;20480;-51
2020/12/26 08:00:24;;;;;;;21.70;3.40;;;4.90;99.90;;;;;;5109584;28;20043;-51
2020/12/26 08:02:54;;;;;;;25.35;2.75;;;5.00;99.90;;;;;;5106430;28;20039;-47
2020/12/26 08:05:28;;;;;;;7.72;2.70;;;5.00;99.90;;;;;;5108194;28;20821;-53
2020/12/26 08:07:54;;;;;;;5.95;1.73;;;5.00;99.90;;;;;;5108881;28;20034;-49
2020/12/26 08:10:20;;;;;;;21.48;2.65;;;5.10;99.90;;;;;;5112122;28;20380;-51
2020/12/26 08:12:49;;;;;;;13.63;2.38;;;5.00;99.90;;;;;;5112608;28;20038;-52
2020/12/26 08:15:20;;;;;;;15.43;4.13;;;5.00;99.90;;;;;;5110639;28;20500;-54
2020/12/26 08:17:52;;;;;;;11.60;1.83;;;5.00;99.90;;;;;;5112421;28;20035;-53
2020/12/26 08:20:20;;;;;;;15.60;2.58;;;5.10;99.90;;;;;;5112846;28;20129;-53
2020/12/26 08:22:46;;;;;;;16.92;2.65;;;5.10;99.90;;;;;;5108251;28;20469;-54
2020/12/26 08:25:12;;;;;;;16.77;3.20;;;5.20;99.90;;;;;;5111231;28;20032;-46
2020/12/26 08:27:39;;;;;;;8.15;1.50;;;5.20;99.90;;;;;;5111441;28;20573;-49
2020/12/26 08:30:16;;;;;;;10.32;2.53;;;5.20;99.90;;;;;;5112322;28;20028;-52
2020/12/26 08:32:51;;;;;;;12.32;2.28;;;5.20;99.90;;;;;;5108927;28;20460;-42
2020/12/26 08:35:20;;;;;;;13.68;3.00;;;5.20;99.90;;;;;;5104889;27;20094;-50
2020/12/26 08:37:47;;;;;;;22.00;2.60;;;5.30;99.90;;;;;;5111285;28;20024;-49
2020/12/26 08:40:16;;;;;;;11.63;2.55;;;5.30;99.90;;;;;;5109084;28;20386;-54
2020/12/26 08:42:43;;;;;;;11.40;2.28;;;5.30;99.90;;;;;;5110313;28;20376;-54
2020/12/26 08:45:29;;;;;;;11.35;2.40;;;5.40;99.90;;;;;;5111565;28;20036;-54
2020/12/26 08:48:00;;;;;;;17.70;5.88;;;5.30;99.90;;;;;;5109962;28;20376;-48
2020/12/26 08:50:27;;;;;;;;;;;5.30;99.90;;;;;;5109493;28;20024;-45
2020/12/26 08:53:10;;;;;;;7.65;2.40;;;5.40;99.90;;;;;;5107127;28;19915;-51
2020/12/26 08:55:51;;;;;;;10.80;2.10;;;5.40;99.90;;;;;;5107985;28;20468;-55
